createdAt,value
2023-05-21T00:00:14.498Z,88.75
2023-05-21T00:05:15.054Z,88.25
2023-05-21T00:10:14.159Z,86.63
2023-05-21T00:15:15.169Z,87.54
2023-05-21T00:20:16.187Z,87.74
2023-05-21T00:25:18.237Z,88.09
2023-05-21T00:30:18.309Z,88.19
2023-05-21T00:35:18.323Z,88.39
2023-05-21T00:40:17.416Z,87.88
2023-05-21T00:45:18.419Z,87.88
2023-05-21T00:50:19.450Z,88.29
2023-05-21T00:55:20.505Z,87.93
2023-05-21T01:00:21.519Z,88.13
2023-05-21T01:05:22.544Z,88.13
2023-05-21T01:10:24.577Z,88.48
2023-05-21T01:15:23.613Z,88.37
2023-05-21T01:20:24.654Z,88.37
2023-05-21T01:25:25.715Z,88.48
2023-05-21T01:30:27.780Z,88.17
2023-05-21T01:35:26.811Z,87.51
2023-05-21T01:40:27.875Z,87.20
2023-05-21T01:45:28.942Z,87.51
2023-05-21T01:50:29.957Z,87.40
2023-05-21T01:55:36.308Z,87.51
2023-05-21T02:00:32.450Z,87.45
2023-05-21T02:05:32.778Z,87.54
2023-05-21T02:10:31.840Z,87.45
2023-05-21T02:15:33.975Z,87.34
2023-05-21T02:20:33.033Z,87.14
2023-05-21T02:25:34.342Z,87.08
2023-05-21T02:30:32.565Z,86.98
2023-05-21T02:35:33.660Z,86.88
2023-05-21T02:40:35.637Z,86.47
2023-05-21T02:45:34.905Z,86.68
2023-05-21T02:50:34.145Z,85.76
2023-05-21T02:55:36.520Z,85.56
2023-05-21T03:00:36.733Z,85.36
2023-05-21T03:05:36.009Z,85.09
2023-05-21T03:10:37.193Z,84.75
2023-05-21T03:15:38.485Z,84.38
2023-05-21T03:20:39.537Z,83.73
2023-05-21T03:25:40.587Z,83.12
2023-05-21T03:30:41.619Z,83.43
2023-05-21T03:35:42.650Z,83.33
2023-05-21T03:40:43.714Z,83.26
2023-05-21T03:45:45.034Z,83.37
2023-05-21T03:50:47.099Z,82.66
2023-05-21T03:55:47.133Z,82.76
2023-05-21T04:00:46.158Z,82.25
2023-05-21T04:05:47.189Z,82.15
2023-05-21T04:10:48.210Z,81.20
2023-05-21T04:15:50.296Z,81.20
2023-05-21T04:20:50.321Z,80.49
2023-05-21T04:25:49.339Z,86.61
2023-05-21T04:30:51.465Z,91.86
2023-05-21T04:35:52.513Z,93.38
2023-05-21T04:40:52.556Z,93.44
2023-05-21T04:45:51.575Z,92.68
2023-05-21T04:50:52.601Z,92.33
2023-05-21T04:55:53.644Z,91.17
2023-05-21T05:00:54.725Z,93.09
2023-05-21T05:05:55.715Z,92.94
2023-05-21T05:10:57.769Z,92.80
2023-05-21T05:15:58.792Z,91.80
2023-05-21T05:20:57.951Z,90.24
2023-05-21T05:25:59.014Z,89.69
2023-05-21T05:31:00.238Z,89.54
2023-05-21T05:36:01.384Z,88.59
2023-05-21T05:41:02.447Z,87.60
2023-05-21T05:46:03.622Z,85.76
2023-05-21T05:51:04.709Z,82.19
2023-05-21T05:56:05.837Z,84.09
2023-05-21T06:01:08.868Z,84.33
2023-05-21T06:06:08.100Z,83.58
2023-05-21T06:11:09.265Z,81.30
2023-05-21T06:16:11.328Z,79.68
2023-05-21T06:21:10.405Z,75.65
2023-05-21T06:26:11.429Z,67.42
2023-05-21T06:31:12.471Z,65.55
2023-05-21T06:36:14.633Z,63.24
2023-05-21T06:41:13.724Z,65.65
2023-05-21T06:46:15.794Z,71.30
2023-05-21T06:51:14.924Z,77.03
2023-05-21T06:56:15.969Z,69.59
2023-05-21T07:01:17.103Z,65.91
2023-05-21T07:06:18.299Z,74.35
2023-05-21T07:11:20.326Z,78.27
2023-05-21T07:16:19.372Z,76.16
2023-05-21T07:21:20.757Z,77.77
2023-05-21T07:26:21.775Z,76.80
2023-05-21T07:31:22.848Z,77.31
2023-05-21T07:36:23.997Z,76.50
2023-05-21T07:41:26.033Z,76.83
2023-05-21T07:46:25.125Z,74.41
2023-05-21T07:51:26.159Z,75.35
2023-05-21T07:56:27.205Z,76.50
2023-05-21T08:01:29.245Z,75.22
2023-05-21T08:06:28.296Z,75.96
2023-05-21T08:11:29.531Z,78.03
2023-05-21T08:16:30.639Z,76.79
2023-05-21T08:21:31.724Z,79.06
2023-05-21T08:26:32.777Z,73.71
2023-05-21T08:31:34.315Z,71.56
2023-05-21T08:36:34.323Z,71.90
2023-05-21T08:41:33.392Z,72.77
2023-05-21T08:46:34.516Z,72.43
2023-05-21T08:51:36.551Z,73.84
2023-05-21T08:56:35.600Z,74.24
2023-05-21T09:01:37.699Z,73.36
2023-05-21T09:06:36.772Z,70.16
2023-05-21T09:11:37.827Z,69.86
2023-05-21T09:16:38.903Z,69.09
2023-05-21T09:21:40.906Z,67.85
2023-05-21T09:26:40.969Z,69.32
2023-05-21T09:31:40.074Z,73.67
2023-05-21T09:36:41.208Z,72.76
2023-05-21T09:41:41.489Z,73.70
2023-05-21T09:46:43.555Z,74.43
2023-05-21T09:51:42.583Z,75.47
2023-05-21T09:56:43.638Z,74.47
2023-05-21T10:01:46.745Z,74.57
2023-05-21T10:06:46.736Z,74.07
2023-05-21T10:11:50.687Z,74.43
2023-05-21T10:16:45.928Z,75.04
2023-05-21T10:21:47.002Z,75.84
2023-05-21T10:26:49.020Z,76.34
2023-05-21T10:31:48.115Z,75.80
2023-05-21T10:36:49.205Z,74.50
2023-05-21T10:41:53.200Z,76.17
2023-05-21T10:46:51.168Z,75.67
2023-05-21T10:51:52.204Z,76.63
2023-05-21T10:56:53.241Z,75.26
2023-05-21T11:01:55.297Z,74.49
2023-05-21T11:06:55.331Z,75.52
2023-05-21T11:11:56.360Z,74.42
2023-05-21T11:16:54.465Z,73.25
2023-05-21T11:21:56.474Z,73.82
2023-05-21T11:26:57.512Z,72.22
2023-05-21T11:31:56.556Z,71.82
2023-05-21T11:36:58.603Z,69.99
2023-05-21T11:41:59.825Z,67.90
2023-05-21T11:46:59.023Z,70.45
2023-05-21T11:51:58.136Z,73.42
2023-05-21T11:56:59.142Z,71.92
2023-05-21T12:02:02.210Z,73.11
2023-05-21T12:07:06.363Z,73.25
2023-05-21T12:12:01.416Z,72.15
2023-05-21T12:17:02.505Z,72.58
2023-05-21T12:22:04.577Z,71.81
2023-05-21T12:27:03.707Z,73.05
2023-05-21T12:32:06.843Z,70.22
2023-05-21T12:37:05.919Z,68.86
2023-05-21T12:42:08.935Z,67.33
2023-05-21T12:47:08.087Z,69.32
2023-05-21T12:52:11.119Z,68.23
2023-05-21T12:57:10.239Z,65.64
2023-05-21T13:02:11.313Z,67.04
2023-05-21T13:07:12.501Z,66.97
2023-05-21T13:12:13.701Z,63.69
2023-05-21T13:17:16.736Z,60.91
2023-05-21T13:22:15.858Z,62.34
2023-05-21T13:27:17.915Z,62.90
2023-05-21T13:32:17.019Z,63.43
2023-05-21T13:37:18.108Z,65.39
2023-05-21T13:42:19.266Z,64.39
2023-05-21T13:47:20.501Z,65.31
2023-05-21T13:52:22.505Z,65.88
2023-05-21T13:57:21.560Z,64.70
2023-05-21T14:02:22.704Z,63.70
2023-05-21T14:07:23.743Z,62.94
2023-05-21T14:12:24.783Z,61.39
2023-05-21T14:17:24.839Z,63.21
2023-05-21T14:22:26.850Z,60.99
2023-05-21T14:27:25.918Z,60.60
2023-05-21T14:32:28.024Z,61.49
2023-05-21T14:37:28.069Z,61.59
2023-05-21T14:42:27.123Z,60.64
2023-05-21T14:47:28.171Z,59.03
2023-05-21T14:52:29.225Z,59.19
2023-05-21T14:57:30.284Z,58.80
2023-05-21T15:02:31.481Z,56.99
2023-05-21T15:07:32.554Z,53.33
2023-05-21T15:12:33.620Z,53.35
2023-05-21T15:17:34.706Z,53.33
2023-05-21T15:22:36.692Z,54.39
2023-05-21T15:27:36.740Z,56.42
2023-05-21T15:32:35.820Z,57.64
2023-05-21T15:37:36.885Z,55.26
2023-05-21T15:42:38.933Z,54.02
2023-05-21T15:47:38.277Z,52.51
2023-05-21T15:52:37.762Z,53.97
2023-05-21T15:57:38.985Z,50.83
2023-05-21T16:02:41.086Z,52.61
2023-05-21T16:07:41.243Z,51.10
2023-05-21T16:12:40.412Z,52.53
2023-05-21T16:17:42.728Z,51.54
2023-05-21T16:22:42.928Z,64.56
2023-05-21T16:27:43.262Z,76.11
2023-05-21T16:32:42.679Z,72.50
2023-05-21T16:37:45.066Z,70.86
2023-05-21T16:42:44.498Z,74.44
2023-05-21T16:47:46.020Z,84.83
2023-05-21T16:52:45.453Z,71.36
2023-05-21T16:57:47.940Z,77.24
2023-05-21T17:02:47.500Z,82.99
2023-05-21T17:07:46.942Z,82.89
2023-05-21T17:12:48.375Z,86.90
2023-05-21T17:17:49.931Z,85.03
2023-05-21T17:22:49.486Z,84.27
2023-05-21T17:27:49.017Z,88.39
2023-05-21T17:32:48.604Z,88.48
2023-05-21T17:37:49.070Z,86.08
2023-05-21T17:42:49.606Z,73.74
2023-05-21T17:47:50.253Z,80.86
2023-05-21T17:52:50.816Z,85.89
2023-05-21T17:57:52.445Z,86.10
2023-05-21T18:02:50.021Z,84.29
2023-05-21T18:07:50.541Z,81.67
2023-05-21T18:12:51.126Z,87.16
2023-05-21T18:17:51.703Z,87.90
2023-05-21T18:22:51.254Z,89.23
2023-05-21T18:27:52.839Z,87.62
2023-05-21T18:32:50.426Z,89.37
2023-05-21T18:37:51.004Z,88.11
2023-05-21T18:42:51.617Z,88.45
2023-05-21T18:47:52.218Z,87.89
2023-05-21T18:52:53.373Z,88.39
2023-05-21T18:57:52.962Z,91.25
2023-05-21T19:02:53.556Z,92.36
2023-05-21T19:07:59.419Z,93.19
2023-05-21T19:12:55.609Z,93.50
2023-05-21T19:17:53.279Z,94.00
2023-05-21T19:22:52.828Z,94.55
2023-05-21T19:27:52.400Z,94.65
2023-05-21T19:32:52.996Z,95.26
2023-05-21T19:37:53.496Z,96.31
2023-05-21T19:42:53.112Z,95.04
2023-05-21T19:47:53.730Z,95.35
2023-05-21T19:52:54.276Z,95.04
2023-05-21T19:57:54.830Z,95.79
2023-05-21T20:02:54.478Z,95.70
2023-05-21T20:07:54.055Z,97.25
2023-05-21T20:12:53.761Z,97.20
2023-05-21T20:17:53.324Z,97.30
2023-05-21T20:22:53.857Z,97.96
2023-05-21T20:27:54.427Z,97.55
2023-05-21T20:32:53.963Z,97.29
2023-05-21T20:37:53.408Z,97.14
2023-05-21T20:42:53.083Z,97.85
2023-05-21T20:47:52.456Z,98.55
2023-05-21T20:52:53.984Z,97.94
2023-05-21T20:57:53.299Z,97.24
2023-05-21T21:02:54.446Z,91.44
2023-05-21T21:07:56.104Z,87.63
2023-05-21T21:12:55.279Z,84.03
2023-05-21T21:17:56.353Z,82.18
2023-05-21T21:23:02.259Z,81.03
2023-05-21T21:27:57.324Z,81.03
2023-05-21T21:32:58.464Z,79.92
2023-05-21T21:37:59.459Z,80.36
2023-05-21T21:43:01.028Z,78.91
2023-05-21T21:48:00.206Z,78.01
2023-05-21T21:53:01.311Z,78.01
2023-05-21T21:58:02.566Z,78.51
2023-05-21T22:03:03.773Z,79.32
2023-05-21T22:08:04.864Z,78.01
2023-05-21T22:13:05.981Z,76.67
2023-05-21T22:18:07.073Z,76.26
2023-05-21T22:23:08.181Z,76.46
2023-05-21T22:28:11.243Z,77.20
2023-05-21T22:33:10.433Z,77.34
2023-05-21T22:38:11.453Z,77.38
2023-05-21T22:43:12.537Z,78.83
2023-05-21T22:48:14.556Z,77.31
2023-05-21T22:53:13.597Z,75.60
2023-05-21T22:58:15.645Z,75.60
2023-05-21T23:03:14.715Z,75.10
2023-05-21T23:08:15.750Z,74.69
2023-05-21T23:13:16.781Z,72.54
2023-05-21T23:18:17.822Z,72.47
2023-05-21T23:23:19.911Z,71.64
2023-05-21T23:28:18.929Z,71.87
2023-05-21T23:33:20.988Z,73.68
2023-05-21T23:38:20.045Z,74.02
2023-05-21T23:43:22.088Z,74.22
2023-05-21T23:48:21.206Z,74.52
2023-05-21T23:53:22.239Z,74.96
2023-05-21T23:58:24.287Z,76.42
